createdAt,value
2023-04-15T00:00:15.751Z,18.76
2023-04-15T00:00:47.236Z,18.74
2023-04-15T00:01:18.657Z,18.75
2023-04-15T00:01:50.236Z,18.75
2023-04-15T00:02:21.979Z,18.74
2023-04-15T00:02:53.700Z,18.71
2023-04-15T00:03:25.368Z,18.72
2023-04-15T00:03:57.204Z,18.72
2023-04-15T00:04:28.882Z,18.71
2023-04-15T00:05:00.390Z,18.70
2023-04-15T00:05:31.806Z,18.69
2023-04-15T00:06:03.203Z,18.70
2023-04-15T00:06:34.604Z,18.69
2023-04-15T00:07:06.004Z,18.69
2023-04-15T00:07:37.403Z,18.69
2023-04-15T00:08:08.790Z,18.68
2023-04-15T00:08:40.253Z,18.68
2023-04-15T00:09:11.661Z,18.68
2023-04-15T00:09:43.046Z,18.66
2023-04-15T00:10:14.488Z,18.69
2023-04-15T00:10:45.899Z,18.66
2023-04-15T00:11:17.322Z,18.68
2023-04-15T00:11:48.723Z,18.68
2023-04-15T00:12:20.130Z,18.70
2023-04-15T00:12:51.533Z,18.67
2023-04-15T00:13:22.926Z,18.68
2023-04-15T00:13:54.328Z,18.66
2023-04-15T00:14:25.728Z,18.67
2023-04-15T00:14:57.160Z,18.64
2023-04-15T00:15:28.606Z,18.66
2023-04-15T00:15:59.990Z,18.66
2023-04-15T00:16:31.488Z,18.66
2023-04-15T00:17:02.926Z,18.67
2023-04-15T00:17:34.356Z,18.65
2023-04-15T00:18:05.779Z,18.64
2023-04-15T00:18:37.188Z,18.63
2023-04-15T00:19:08.610Z,18.63
2023-04-15T00:19:40.043Z,18.63
2023-04-15T00:20:11.437Z,18.62
2023-04-15T00:20:42.874Z,18.63
2023-04-15T00:21:14.295Z,18.63
2023-04-15T00:21:45.693Z,18.64
2023-04-15T00:22:17.105Z,18.63
2023-04-15T00:22:48.512Z,18.62
2023-04-15T00:23:19.921Z,18.62
2023-04-15T00:23:51.322Z,18.61
2023-04-15T00:24:22.726Z,18.61
2023-04-15T00:24:54.124Z,18.61
2023-04-15T00:25:25.544Z,18.60
2023-04-15T00:25:56.951Z,18.60
2023-04-15T00:26:28.373Z,18.61
2023-04-15T00:26:59.762Z,18.61
2023-04-15T00:27:31.173Z,18.60
2023-04-15T00:28:02.581Z,18.58
2023-04-15T00:28:33.972Z,18.60
2023-04-15T00:29:05.347Z,18.59
2023-04-15T00:29:36.744Z,18.59
2023-04-15T00:30:08.161Z,18.56
2023-04-15T00:30:39.608Z,18.58
2023-04-15T00:31:11.144Z,18.57
2023-04-15T00:31:42.612Z,18.57
2023-04-15T00:32:14.016Z,18.55
2023-04-15T00:32:45.480Z,18.55
2023-04-15T00:33:16.870Z,18.56
2023-04-15T00:33:48.284Z,18.56
2023-04-15T00:34:19.684Z,18.55
2023-04-15T00:34:51.100Z,18.56
2023-04-15T00:35:22.516Z,18.55
2023-04-15T00:35:53.919Z,18.55
2023-04-15T00:36:25.374Z,18.55
2023-04-15T00:36:56.789Z,18.53
2023-04-15T00:37:28.184Z,18.51
2023-04-15T00:37:59.589Z,18.52
2023-04-15T00:38:30.995Z,18.52
2023-04-15T00:39:02.610Z,18.52
2023-04-15T00:39:34.116Z,18.53
2023-04-15T00:40:05.512Z,18.53
2023-04-15T00:40:36.913Z,18.53
2023-04-15T00:41:08.342Z,18.53
2023-04-15T00:41:39.753Z,18.52
2023-04-15T00:42:11.173Z,18.49
2023-04-15T00:42:42.583Z,18.49
2023-04-15T00:43:13.973Z,18.49
2023-04-15T00:43:45.369Z,18.49
2023-04-15T00:44:16.775Z,18.49
2023-04-15T00:44:48.175Z,18.50
2023-04-15T00:45:19.560Z,18.49
2023-04-15T00:45:51.003Z,18.47
2023-04-15T00:46:22.522Z,18.46
2023-04-15T00:46:53.984Z,18.48
2023-04-15T00:47:25.409Z,18.48
2023-04-15T00:47:56.931Z,18.48
2023-04-15T00:48:28.399Z,18.47
2023-04-15T00:49:00.006Z,18.47
2023-04-15T00:49:31.613Z,18.47
2023-04-15T00:50:03.028Z,18.47
2023-04-15T00:50:34.464Z,18.46
2023-04-15T00:51:05.891Z,18.47
2023-04-15T00:51:37.289Z,18.46
2023-04-15T00:52:08.684Z,18.46
2023-04-15T00:52:40.085Z,18.46
2023-04-15T00:53:11.491Z,18.44
2023-04-15T00:53:42.907Z,18.45
2023-04-15T00:54:14.312Z,18.45
2023-04-15T00:54:45.700Z,18.44
2023-04-15T00:55:17.104Z,18.42
2023-04-15T00:55:48.521Z,18.44
2023-04-15T00:56:19.977Z,18.45
2023-04-15T00:56:51.392Z,18.43
2023-04-15T00:57:22.809Z,18.43
2023-04-15T00:57:54.252Z,18.43
2023-04-15T00:58:25.650Z,18.43
2023-04-15T00:58:57.054Z,18.41
2023-04-15T00:59:28.464Z,18.41
2023-04-15T00:59:59.873Z,18.40
2023-04-15T01:00:31.309Z,18.40
2023-04-15T01:01:02.734Z,18.40
2023-04-15T01:01:34.212Z,18.41
2023-04-15T01:02:05.779Z,18.41
2023-04-15T01:02:37.385Z,18.40
2023-04-15T01:03:09.108Z,18.41
2023-04-15T01:03:40.788Z,18.40
2023-04-15T01:04:12.442Z,18.40
2023-04-15T01:04:43.941Z,18.40
2023-04-15T01:05:15.373Z,18.40
2023-04-15T01:05:46.769Z,18.39
2023-04-15T01:06:18.181Z,18.39
2023-04-15T01:06:49.629Z,18.38
2023-04-15T01:07:21.028Z,18.38
2023-04-15T01:07:52.419Z,18.38
2023-04-15T01:08:23.816Z,18.37
2023-04-15T01:08:55.217Z,18.38
2023-04-15T01:09:26.630Z,18.36
2023-04-15T01:09:58.020Z,18.35
2023-04-15T01:10:29.421Z,18.36
2023-04-15T01:11:00.820Z,18.36
2023-04-15T01:11:32.222Z,18.35
2023-04-15T01:12:03.683Z,18.36
2023-04-15T01:12:35.064Z,18.35
2023-04-15T01:13:06.482Z,18.35
2023-04-15T01:13:37.902Z,18.34
2023-04-15T01:14:09.290Z,18.35
2023-04-15T01:14:40.710Z,18.34
2023-04-15T01:15:12.144Z,18.34
2023-04-15T01:15:43.564Z,18.33
2023-04-15T01:16:15.029Z,18.33
2023-04-15T01:16:46.544Z,18.33
2023-04-15T01:17:17.935Z,18.32
2023-04-15T01:17:49.343Z,18.33
2023-04-15T01:18:20.744Z,18.33
2023-04-15T01:18:52.154Z,18.32
2023-04-15T01:19:23.559Z,18.32
2023-04-15T01:19:54.963Z,18.32
2023-04-15T01:20:26.389Z,18.31
2023-04-15T01:20:57.804Z,18.30
2023-04-15T01:21:29.190Z,18.32
2023-04-15T01:22:00.636Z,18.29
2023-04-15T01:22:32.039Z,18.30
2023-04-15T01:23:03.423Z,18.29
2023-04-15T01:23:34.821Z,18.29
2023-04-15T01:24:06.220Z,18.29
2023-04-15T01:24:37.630Z,18.28
2023-04-15T01:25:09.105Z,18.29
2023-04-15T01:25:40.501Z,18.28
2023-04-15T01:26:11.939Z,18.28
2023-04-15T01:26:44.525Z,18.27
2023-04-15T01:27:16.126Z,18.27
2023-04-15T01:27:47.533Z,18.28
2023-04-15T01:28:18.949Z,18.27
2023-04-15T01:28:50.364Z,18.26
2023-04-15T01:29:21.749Z,18.28
2023-04-15T01:29:53.156Z,18.27
2023-04-15T01:30:24.574Z,18.27
2023-04-15T01:30:55.966Z,18.26
2023-04-15T01:31:27.510Z,18.27
2023-04-15T01:31:59.072Z,18.26
2023-04-15T01:32:30.627Z,18.27
2023-04-15T01:33:02.132Z,18.26
2023-04-15T01:33:33.644Z,18.24
2023-04-15T01:34:05.055Z,18.25
2023-04-15T01:34:36.459Z,18.26
2023-04-15T01:35:07.860Z,18.23
2023-04-15T01:35:39.265Z,18.24
2023-04-15T01:36:10.665Z,18.24
2023-04-15T01:36:42.100Z,18.25
2023-04-15T01:37:13.537Z,18.24
2023-04-15T01:37:44.932Z,18.24
2023-04-15T01:38:16.362Z,18.24
2023-04-15T01:38:47.764Z,18.23
2023-04-15T01:39:19.169Z,18.23
2023-04-15T01:39:50.574Z,18.22
2023-04-15T01:40:21.970Z,18.22
2023-04-15T01:40:53.371Z,18.23
2023-04-15T01:41:24.783Z,18.22
2023-04-15T01:41:56.180Z,18.22
2023-04-15T01:42:27.640Z,18.20
2023-04-15T01:42:59.117Z,18.20
2023-04-15T01:43:30.538Z,18.20
2023-04-15T01:44:01.947Z,18.21
2023-04-15T01:44:33.355Z,18.20
2023-04-15T01:45:04.755Z,18.20
2023-04-15T01:45:36.182Z,18.19
2023-04-15T01:46:07.573Z,18.18
2023-04-15T01:46:38.974Z,18.19
2023-04-15T01:47:10.408Z,18.19
2023-04-15T01:47:41.876Z,18.19
2023-04-15T01:48:13.341Z,18.17
2023-04-15T01:48:44.731Z,18.19
2023-04-15T01:49:16.116Z,18.17
2023-04-15T01:49:47.507Z,18.16
2023-04-15T01:50:18.915Z,18.16
2023-04-15T01:50:50.351Z,18.16
2023-04-15T01:51:21.753Z,18.17
2023-04-15T01:51:53.172Z,18.15
2023-04-15T01:52:24.597Z,18.17
2023-04-15T01:52:56.039Z,18.15
2023-04-15T01:53:27.436Z,18.16
2023-04-15T01:53:58.867Z,18.15
2023-04-15T01:54:30.317Z,18.14
2023-04-15T01:55:01.760Z,18.14
2023-04-15T01:55:33.161Z,18.14
2023-04-15T01:56:04.583Z,18.14
2023-04-15T01:56:35.989Z,18.13
2023-04-15T01:57:07.404Z,18.12
2023-04-15T01:57:38.852Z,18.13
2023-04-15T01:58:10.254Z,18.12
2023-04-15T01:58:41.663Z,18.13
2023-04-15T01:59:13.068Z,18.13
2023-04-15T01:59:44.470Z,18.12
2023-04-15T02:00:15.865Z,18.12
2023-04-15T02:00:47.318Z,18.12
2023-04-15T02:01:18.792Z,18.12
2023-04-15T02:01:50.247Z,18.11
2023-04-15T02:02:21.731Z,18.11
2023-04-15T02:02:53.252Z,18.09
2023-04-15T02:03:24.787Z,18.11
2023-04-15T02:03:56.317Z,18.09
2023-04-15T02:04:27.794Z,18.09
2023-04-15T02:04:59.172Z,18.10
2023-04-15T02:05:30.568Z,18.10
2023-04-15T02:06:01.987Z,18.11
2023-04-15T02:06:33.400Z,18.09
2023-04-15T02:07:04.802Z,18.09
2023-04-15T02:07:36.196Z,18.07
2023-04-15T02:08:07.681Z,18.08
2023-04-15T02:08:39.090Z,18.08
2023-04-15T02:09:10.553Z,18.06
2023-04-15T02:09:41.965Z,18.08
2023-04-15T02:10:13.384Z,18.08
2023-04-15T02:10:44.794Z,18.06
2023-04-15T02:11:16.205Z,18.07
2023-04-15T02:11:47.628Z,18.06
2023-04-15T02:12:19.041Z,18.06
2023-04-15T02:12:50.434Z,18.06
2023-04-15T02:13:21.822Z,18.06
2023-04-15T02:13:53.258Z,18.06
2023-04-15T02:14:24.721Z,18.05
2023-04-15T02:14:56.133Z,18.04
2023-04-15T02:15:27.570Z,18.04
2023-04-15T02:15:58.979Z,18.05
2023-04-15T02:16:30.384Z,18.05
2023-04-15T02:17:01.793Z,18.04
2023-04-15T02:17:33.270Z,18.03
2023-04-15T02:18:04.680Z,18.03
2023-04-15T02:18:36.078Z,18.04
2023-04-15T02:19:07.746Z,18.02
2023-04-15T02:19:39.181Z,18.02
2023-04-15T02:20:10.582Z,18.01
2023-04-15T02:20:42.009Z,18.02
2023-04-15T02:21:13.406Z,18.01
2023-04-15T02:21:44.790Z,18.01
2023-04-15T02:22:16.202Z,18.01
2023-04-15T02:22:47.592Z,18.00
2023-04-15T02:23:18.995Z,18.02
2023-04-15T02:23:50.626Z,18.01
2023-04-15T02:24:23.203Z,18.01
2023-04-15T02:24:54.648Z,18.00
2023-04-15T02:25:26.057Z,18.00
2023-04-15T02:25:57.464Z,18.01
2023-04-15T02:26:28.864Z,18.00
2023-04-15T02:27:00.255Z,18.00
2023-04-15T02:27:31.652Z,18.00
2023-04-15T02:28:03.065Z,18.00
2023-04-15T02:28:34.469Z,18.00
2023-04-15T02:29:05.874Z,17.99
2023-04-15T02:29:37.295Z,17.99
2023-04-15T02:30:08.740Z,17.99
2023-04-15T02:30:40.161Z,17.97
2023-04-15T02:31:11.556Z,17.97
2023-04-15T02:31:42.992Z,17.97
2023-04-15T02:32:14.396Z,17.98
2023-04-15T02:32:45.840Z,17.97
2023-04-15T02:33:17.246Z,17.97
2023-04-15T02:33:48.644Z,17.98
2023-04-15T02:34:20.062Z,17.96
2023-04-15T02:34:51.486Z,17.96
2023-04-15T02:35:22.912Z,17.97
2023-04-15T02:35:54.313Z,17.97
2023-04-15T02:36:25.751Z,17.96
2023-04-15T02:36:57.163Z,17.96
2023-04-15T02:37:28.658Z,17.97
2023-04-15T02:38:00.108Z,17.96
2023-04-15T02:38:31.539Z,17.95
2023-04-15T02:39:03.337Z,17.95
2023-04-15T02:39:34.928Z,17.95
2023-04-15T02:40:06.346Z,17.95
2023-04-15T02:40:37.761Z,17.94
2023-04-15T02:41:09.192Z,17.94
2023-04-15T02:41:40.580Z,17.92
2023-04-15T02:42:12.012Z,17.92
2023-04-15T02:42:43.417Z,17.92
2023-04-15T02:43:14.810Z,17.92
2023-04-15T02:43:46.218Z,17.92
2023-04-15T02:44:17.622Z,17.91
2023-04-15T02:44:49.024Z,17.92
2023-04-15T02:45:20.407Z,17.92
2023-04-15T02:45:51.821Z,17.92
2023-04-15T02:46:23.331Z,17.92
2023-04-15T02:46:54.755Z,17.91
2023-04-15T02:47:26.204Z,17.92
2023-04-15T02:47:57.629Z,17.91
2023-04-15T02:48:29.077Z,17.91
2023-04-15T02:49:00.638Z,17.91
2023-04-15T02:49:32.173Z,17.90
2023-04-15T02:50:03.581Z,17.90
2023-04-15T02:50:35.010Z,17.89
2023-04-15T02:51:06.404Z,17.90
2023-04-15T02:51:37.829Z,17.89
2023-04-15T02:52:09.223Z,17.89
2023-04-15T02:52:40.638Z,17.89
2023-04-15T02:53:12.023Z,17.90
2023-04-15T02:53:43.485Z,17.89
2023-04-15T02:54:14.880Z,17.89
2023-04-15T02:54:46.293Z,17.89
2023-04-15T02:55:17.700Z,17.87
2023-04-15T02:55:49.146Z,17.87
2023-04-15T02:56:20.538Z,17.87
2023-04-15T02:56:51.987Z,17.86
2023-04-15T02:57:23.380Z,17.86
2023-04-15T02:57:54.798Z,17.86
2023-04-15T02:58:26.200Z,17.86
2023-04-15T02:58:57.582Z,17.87
2023-04-15T02:59:29.002Z,17.87
2023-04-15T03:00:00.403Z,17.86
2023-04-15T03:00:31.920Z,17.87
2023-04-15T03:01:03.376Z,17.86
2023-04-15T03:01:34.916Z,17.86
2023-04-15T03:02:06.436Z,17.86
2023-04-15T03:02:37.979Z,17.85
2023-04-15T03:03:09.763Z,17.85
2023-04-15T03:03:41.418Z,17.85
2023-04-15T03:04:13.072Z,17.84
2023-04-15T03:04:44.583Z,17.83
2023-04-15T03:05:16.003Z,17.83
2023-04-15T03:05:47.406Z,17.84
2023-04-15T03:06:18.814Z,17.84
2023-04-15T03:06:50.228Z,17.83
2023-04-15T03:07:21.667Z,17.83
2023-04-15T03:07:53.057Z,17.83
2023-04-15T03:08:24.478Z,17.82
2023-04-15T03:08:55.905Z,17.82
2023-04-15T03:09:27.308Z,17.83
2023-04-15T03:09:58.696Z,17.82
2023-04-15T03:10:30.155Z,17.82
2023-04-15T03:11:01.605Z,17.81
2023-04-15T03:11:33.984Z,17.82
2023-04-15T03:12:06.818Z,17.82
2023-04-15T03:12:38.220Z,17.82
2023-04-15T03:13:09.609Z,17.82
2023-04-15T03:13:41.012Z,17.82
2023-04-15T03:14:12.400Z,17.81
2023-04-15T03:14:43.817Z,17.81
2023-04-15T03:15:15.228Z,17.81
2023-04-15T03:15:46.688Z,17.81
2023-04-15T03:16:18.225Z,17.80
2023-04-15T03:16:49.715Z,17.80
2023-04-15T03:17:21.188Z,17.80
2023-04-15T03:17:52.667Z,17.78
2023-04-15T03:18:24.084Z,17.80
2023-04-15T03:18:55.481Z,17.78
2023-04-15T03:19:26.895Z,17.78
2023-04-15T03:19:58.312Z,17.77
2023-04-15T03:20:29.787Z,17.78
2023-04-15T03:21:01.234Z,17.78
2023-04-15T03:21:32.634Z,17.79
2023-04-15T03:22:04.020Z,17.78
2023-04-15T03:22:35.423Z,17.78
2023-04-15T03:23:06.879Z,17.78
2023-04-15T03:23:38.288Z,17.77
2023-04-15T03:24:09.685Z,17.78
2023-04-15T03:24:41.069Z,17.77
2023-04-15T03:25:12.469Z,17.77
2023-04-15T03:25:43.863Z,17.77
2023-04-15T03:26:15.261Z,17.76
2023-04-15T03:26:46.688Z,17.75
2023-04-15T03:27:18.094Z,17.75
2023-04-15T03:27:49.516Z,17.77
2023-04-15T03:28:20.955Z,17.75
2023-04-15T03:28:52.350Z,17.76
2023-04-15T03:29:23.751Z,17.74
2023-04-15T03:29:55.160Z,17.75
2023-04-15T03:30:26.586Z,17.75
2023-04-15T03:30:58.024Z,17.75
2023-04-15T03:31:29.478Z,17.75
2023-04-15T03:32:00.936Z,17.74
2023-04-15T03:32:32.361Z,17.74
2023-04-15T03:33:03.793Z,17.74
2023-04-15T03:33:35.206Z,17.73
2023-04-15T03:34:06.597Z,17.72
2023-04-15T03:34:38.033Z,17.73
2023-04-15T03:35:09.455Z,17.73
2023-04-15T03:35:40.893Z,17.72
2023-04-15T03:36:12.333Z,17.72
2023-04-15T03:36:43.730Z,17.72
2023-04-15T03:37:15.128Z,17.71
2023-04-15T03:37:46.534Z,17.72
2023-04-15T03:38:17.939Z,17.70
2023-04-15T03:38:49.358Z,17.72
2023-04-15T03:39:20.781Z,17.71
2023-04-15T03:39:52.205Z,17.72
2023-04-15T03:40:23.627Z,17.71
2023-04-15T03:40:55.030Z,17.71
2023-04-15T03:41:26.465Z,17.70
2023-04-15T03:41:57.883Z,17.70
2023-04-15T03:42:29.269Z,17.71
2023-04-15T03:43:00.686Z,17.70
2023-04-15T03:43:32.085Z,17.70
2023-04-15T03:44:03.470Z,17.71
2023-04-15T03:44:34.860Z,17.70
2023-04-15T03:45:06.282Z,17.70
2023-04-15T03:45:37.692Z,17.70
2023-04-15T03:46:09.164Z,17.69
2023-04-15T03:46:40.772Z,17.68
2023-04-15T03:47:12.206Z,17.68
2023-04-15T03:47:43.659Z,17.69
2023-04-15T03:48:17.241Z,17.69
2023-04-15T03:48:49.628Z,17.68
2023-04-15T03:49:21.033Z,17.67
2023-04-15T03:49:52.447Z,17.67
2023-04-15T03:50:23.850Z,17.65
2023-04-15T03:50:55.271Z,17.68
2023-04-15T03:51:26.720Z,17.67
2023-04-15T03:51:58.128Z,17.67
2023-04-15T03:52:29.553Z,17.67
2023-04-15T03:53:00.968Z,17.67
2023-04-15T03:53:32.371Z,17.66
2023-04-15T03:54:03.785Z,17.67
2023-04-15T03:54:35.169Z,17.66
2023-04-15T03:55:06.603Z,17.67
2023-04-15T03:55:37.991Z,17.67
2023-04-15T03:56:09.396Z,17.65
2023-04-15T03:56:40.804Z,17.67
2023-04-15T03:57:12.223Z,17.67
2023-04-15T03:57:43.623Z,17.66
2023-04-15T03:58:15.019Z,17.66
2023-04-15T03:58:46.424Z,17.65
2023-04-15T03:59:17.819Z,17.64
2023-04-15T03:59:49.241Z,17.65
2023-04-15T04:00:20.645Z,17.65
2023-04-15T04:00:52.074Z,17.65
2023-04-15T04:01:23.464Z,17.65
2023-04-15T04:01:54.933Z,17.65
2023-04-15T04:02:26.844Z,17.62
2023-04-15T04:02:58.681Z,17.63
2023-04-15T04:03:30.411Z,17.65
2023-04-15T04:04:02.023Z,17.64
2023-04-15T04:04:33.598Z,17.63
2023-04-15T04:05:05.064Z,17.63
2023-04-15T04:05:36.454Z,17.64
2023-04-15T04:06:07.864Z,17.63
2023-04-15T04:06:39.256Z,17.61
2023-04-15T04:07:10.657Z,17.62
2023-04-15T04:07:42.078Z,17.61
2023-04-15T04:08:13.489Z,17.62
2023-04-15T04:08:44.870Z,17.62
2023-04-15T04:09:16.312Z,17.62
2023-04-15T04:09:47.719Z,17.61
2023-04-15T04:10:19.149Z,17.61
2023-04-15T04:10:50.551Z,17.61
2023-04-15T04:11:21.955Z,17.62
2023-04-15T04:11:53.359Z,17.61
2023-04-15T04:12:24.781Z,17.60
2023-04-15T04:12:56.255Z,17.61
2023-04-15T04:13:27.664Z,17.61
2023-04-15T04:13:59.075Z,17.60
2023-04-15T04:14:30.497Z,17.60
2023-04-15T04:15:01.900Z,17.60
2023-04-15T04:15:33.369Z,17.59
2023-04-15T04:16:04.962Z,17.60
2023-04-15T04:16:36.533Z,17.60
2023-04-15T04:17:08.155Z,17.59
2023-04-15T04:17:39.663Z,17.59
2023-04-15T04:18:11.141Z,17.59
2023-04-15T04:18:42.609Z,17.60
2023-04-15T04:19:14.016Z,17.59
2023-04-15T04:19:45.427Z,17.58
2023-04-15T04:20:16.834Z,17.59
2023-04-15T04:20:48.216Z,17.57
2023-04-15T04:21:19.620Z,17.58
2023-04-15T04:21:51.021Z,17.58
2023-04-15T04:22:22.420Z,17.59
2023-04-15T04:22:53.821Z,17.58
2023-04-15T04:23:25.225Z,17.58
2023-04-15T04:23:56.617Z,17.57
2023-04-15T04:24:28.014Z,17.57
2023-04-15T04:24:59.564Z,17.57
2023-04-15T04:25:30.981Z,17.56
2023-04-15T04:26:02.608Z,17.57
2023-04-15T04:26:34.056Z,17.57
2023-04-15T04:27:05.449Z,17.57
2023-04-15T04:27:36.852Z,17.57
2023-04-15T04:28:08.243Z,17.56
2023-04-15T04:28:39.653Z,17.57
2023-04-15T04:29:11.070Z,17.56
2023-04-15T04:29:42.476Z,17.57
2023-04-15T04:30:13.868Z,17.57
2023-04-15T04:30:45.271Z,17.57
2023-04-15T04:31:16.677Z,17.58
2023-04-15T04:31:48.152Z,17.57
2023-04-15T04:32:19.576Z,17.58
2023-04-15T04:32:51.026Z,17.57
2023-04-15T04:33:22.436Z,17.58
2023-04-15T04:33:53.861Z,17.57
2023-04-15T04:34:25.272Z,17.56
2023-04-15T04:34:56.681Z,17.55
2023-04-15T04:35:28.095Z,17.57
2023-04-15T04:35:59.488Z,17.58
2023-04-15T04:36:30.893Z,17.57
2023-04-15T04:37:02.291Z,17.59
2023-04-15T04:37:33.731Z,17.58
2023-04-15T04:38:05.134Z,17.59
2023-04-15T04:38:36.541Z,17.58
2023-04-15T04:39:07.979Z,17.59
2023-04-15T04:39:39.392Z,17.59
2023-04-15T04:40:10.801Z,17.60
2023-04-15T04:40:42.197Z,17.60
2023-04-15T04:41:13.601Z,17.60
2023-04-15T04:41:45.016Z,17.59
2023-04-15T04:42:16.428Z,17.60
2023-04-15T04:42:47.834Z,17.61
2023-04-15T04:43:19.257Z,17.61
2023-04-15T04:43:50.674Z,17.62
2023-04-15T04:44:22.110Z,17.61
2023-04-15T04:44:53.494Z,17.61
2023-04-15T04:45:24.911Z,17.62
2023-04-15T04:45:56.357Z,17.61
2023-04-15T04:46:27.763Z,17.63
2023-04-15T04:46:59.193Z,17.63
2023-04-15T04:47:30.616Z,17.63
2023-04-15T04:48:02.068Z,17.63
2023-04-15T04:48:33.499Z,17.63
2023-04-15T04:49:05.088Z,17.64
2023-04-15T04:49:36.590Z,17.65
2023-04-15T04:50:08.021Z,17.65
2023-04-15T04:50:39.424Z,17.65
2023-04-15T04:51:10.808Z,17.65
2023-04-15T04:51:42.197Z,17.65
2023-04-15T04:52:13.668Z,17.65
2023-04-15T04:52:45.117Z,17.65
2023-04-15T04:53:16.530Z,17.66
2023-04-15T04:53:47.929Z,17.66
2023-04-15T04:54:19.332Z,17.67
2023-04-15T04:54:50.768Z,17.67
2023-04-15T04:55:22.194Z,17.66
2023-04-15T04:55:53.612Z,17.67
2023-04-15T04:56:25.025Z,17.67
2023-04-15T04:56:56.429Z,17.67
2023-04-15T04:57:27.824Z,17.69
2023-04-15T04:57:59.225Z,17.68
2023-04-15T04:58:30.637Z,17.69
2023-04-15T04:59:02.260Z,17.69
2023-04-15T04:59:33.801Z,17.69
2023-04-15T05:00:05.244Z,17.69
2023-04-15T05:00:36.733Z,17.69
2023-04-15T05:01:08.207Z,17.69
2023-04-15T05:01:39.668Z,17.70
2023-04-15T05:02:11.331Z,17.69
2023-04-15T05:02:44.259Z,17.70
2023-04-15T05:03:15.959Z,17.69
2023-04-15T05:03:47.513Z,17.70
2023-04-15T05:04:19.129Z,17.69
2023-04-15T05:04:50.577Z,17.70
2023-04-15T05:05:22.053Z,17.70
2023-04-15T05:05:53.459Z,17.70
2023-04-15T05:06:24.858Z,17.71
2023-04-15T05:06:56.261Z,17.70
2023-04-15T05:07:27.696Z,17.71
2023-04-15T05:07:59.110Z,17.71
2023-04-15T05:08:30.507Z,17.72
2023-04-15T05:09:02.194Z,17.71
2023-04-15T05:09:33.977Z,17.71
2023-04-15T05:10:05.394Z,17.70
2023-04-15T05:10:36.810Z,17.70
2023-04-15T05:11:08.220Z,17.71
2023-04-15T05:11:39.649Z,17.71
2023-04-15T05:12:11.040Z,17.71
2023-04-15T05:12:42.430Z,17.71
2023-04-15T05:13:13.845Z,17.71
2023-04-15T05:13:45.246Z,17.72
2023-04-15T05:14:16.652Z,17.70
2023-04-15T05:14:48.061Z,17.71
2023-04-15T05:15:19.553Z,17.71
2023-04-15T05:15:50.987Z,17.72
2023-04-15T05:16:22.446Z,17.71
2023-04-15T05:16:54.012Z,17.71
2023-04-15T05:17:25.457Z,17.72
2023-04-15T05:17:56.924Z,17.72
2023-04-15T05:18:28.333Z,17.72
2023-04-15T05:18:59.870Z,17.72
2023-04-15T05:19:31.384Z,17.72
2023-04-15T05:20:02.809Z,17.73
2023-04-15T05:20:34.250Z,17.73
2023-04-15T05:21:05.659Z,17.72
2023-04-15T05:21:39.343Z,17.72
2023-04-15T05:22:10.958Z,17.71
2023-04-15T05:22:42.350Z,17.72
2023-04-15T05:23:13.742Z,17.72
2023-04-15T05:23:45.153Z,17.72
2023-04-15T05:24:16.562Z,17.72
2023-04-15T05:24:47.967Z,17.72
2023-04-15T05:25:19.409Z,17.72
2023-04-15T05:25:50.837Z,17.72
2023-04-15T05:26:22.236Z,17.71
2023-04-15T05:26:53.645Z,17.71
2023-04-15T05:27:25.071Z,17.71
2023-04-15T05:27:56.491Z,17.72
2023-04-15T05:28:27.898Z,17.71
2023-04-15T05:28:59.480Z,17.71
2023-04-15T05:29:30.948Z,17.71
2023-04-15T05:30:02.364Z,17.71
2023-04-15T05:30:33.815Z,17.71
2023-04-15T05:31:05.288Z,17.70
2023-04-15T05:31:36.810Z,17.71
2023-04-15T05:32:08.326Z,17.70
2023-04-15T05:32:39.796Z,17.69
2023-04-15T05:33:11.230Z,17.70
2023-04-15T05:33:42.629Z,17.70
2023-04-15T05:34:14.038Z,17.70
2023-04-15T05:34:45.450Z,17.70
2023-04-15T05:35:16.858Z,17.70
2023-04-15T05:35:48.259Z,17.69
2023-04-15T05:36:19.691Z,17.69
2023-04-15T05:36:51.094Z,17.69
2023-04-15T05:37:22.505Z,17.69
2023-04-15T05:37:53.917Z,17.69
2023-04-15T05:38:25.330Z,17.69
2023-04-15T05:38:56.733Z,17.69
2023-04-15T05:39:28.155Z,17.68
2023-04-15T05:39:59.562Z,17.68
2023-04-15T05:40:30.990Z,17.68
2023-04-15T05:41:02.393Z,17.67
2023-04-15T05:41:33.814Z,17.68
2023-04-15T05:42:05.217Z,17.67
2023-04-15T05:42:36.610Z,17.67
2023-04-15T05:43:08.015Z,17.67
2023-04-15T05:43:39.426Z,17.66
2023-04-15T05:44:10.824Z,17.68
2023-04-15T05:44:42.241Z,17.68
2023-04-15T05:45:13.718Z,17.68
2023-04-15T05:45:45.135Z,17.67
2023-04-15T05:46:16.621Z,17.68
2023-04-15T05:46:48.102Z,17.68
2023-04-15T05:47:19.535Z,17.66
2023-04-15T05:47:51.033Z,17.67
2023-04-15T05:48:22.457Z,17.67
2023-04-15T05:48:54.740Z,17.65
2023-04-15T05:49:27.864Z,17.66
2023-04-15T05:49:59.257Z,17.67
2023-04-15T05:50:30.652Z,17.69
2023-04-15T05:51:02.044Z,17.68
2023-04-15T05:51:33.454Z,17.68
2023-04-15T05:52:04.844Z,17.68
2023-04-15T05:52:36.254Z,17.68
2023-04-15T05:53:07.637Z,17.68
2023-04-15T05:53:39.037Z,17.68
2023-04-15T05:54:10.504Z,17.68
2023-04-15T05:54:41.911Z,17.69
2023-04-15T05:55:13.322Z,17.68
2023-04-15T05:55:44.728Z,17.68
2023-04-15T05:56:16.141Z,17.68
2023-04-15T05:56:47.584Z,17.68
2023-04-15T05:57:18.998Z,17.68
2023-04-15T05:57:50.408Z,17.68
2023-04-15T05:58:21.816Z,17.68
2023-04-15T05:58:53.798Z,17.68
2023-04-15T05:59:25.386Z,17.69
2023-04-15T05:59:56.782Z,17.69
2023-04-15T06:00:28.179Z,17.68
2023-04-15T06:00:59.597Z,17.69
2023-04-15T06:01:31.000Z,17.70
2023-04-15T06:02:02.440Z,17.69
2023-04-15T06:02:33.954Z,17.69
2023-04-15T06:03:05.492Z,17.70
2023-04-15T06:03:37.080Z,17.71
2023-04-15T06:04:08.584Z,17.70
2023-04-15T06:04:40.214Z,17.70
2023-04-15T06:05:11.658Z,17.70
2023-04-15T06:05:43.057Z,17.70
2023-04-15T06:06:14.479Z,17.71
2023-04-15T06:06:45.867Z,17.71
2023-04-15T06:07:17.263Z,17.71
2023-04-15T06:07:48.810Z,17.71
2023-04-15T06:08:20.232Z,17.71
2023-04-15T06:08:51.685Z,17.71
2023-04-15T06:09:23.096Z,17.72
2023-04-15T06:09:54.497Z,17.71
2023-04-15T06:10:25.941Z,17.72
2023-04-15T06:10:57.349Z,17.72
2023-04-15T06:11:28.771Z,17.72
2023-04-15T06:12:00.216Z,17.72
2023-04-15T06:12:31.617Z,17.71
2023-04-15T06:13:03.025Z,17.72
2023-04-15T06:13:34.420Z,17.72
2023-04-15T06:14:05.822Z,17.72
2023-04-15T06:14:37.226Z,17.74
2023-04-15T06:15:08.626Z,17.73
2023-04-15T06:15:40.032Z,17.73
2023-04-15T06:16:11.462Z,17.74
2023-04-15T06:16:42.910Z,17.74
2023-04-15T06:17:14.325Z,17.74
2023-04-15T06:17:45.756Z,17.74
2023-04-15T06:18:17.180Z,17.74
2023-04-15T06:18:49.057Z,17.75
2023-04-15T06:19:20.532Z,17.74
2023-04-15T06:19:51.971Z,17.75
2023-04-15T06:20:23.378Z,17.75
2023-04-15T06:20:54.788Z,17.74
2023-04-15T06:21:26.215Z,17.75
2023-04-15T06:21:57.664Z,17.77
2023-04-15T06:22:29.058Z,17.76
2023-04-15T06:23:00.473Z,17.77
2023-04-15T06:23:31.875Z,17.75
2023-04-15T06:24:03.281Z,17.76
2023-04-15T06:24:34.736Z,17.76
2023-04-15T06:25:06.144Z,17.76
2023-04-15T06:25:37.545Z,17.76
2023-04-15T06:26:08.961Z,17.76
2023-04-15T06:26:40.366Z,17.76
2023-04-15T06:27:11.777Z,17.77
2023-04-15T06:27:43.187Z,17.76
2023-04-15T06:28:14.594Z,17.77
2023-04-15T06:28:45.989Z,17.77
2023-04-15T06:29:17.414Z,17.76
2023-04-15T06:29:48.865Z,17.76
2023-04-15T06:30:20.614Z,17.77
2023-04-15T06:30:52.928Z,17.78
2023-04-15T06:31:24.338Z,17.77
2023-04-15T06:31:55.799Z,17.77
2023-04-15T06:32:27.265Z,17.77
2023-04-15T06:32:58.754Z,17.77
2023-04-15T06:33:30.215Z,17.77
2023-04-15T06:34:01.693Z,17.77
2023-04-15T06:34:33.129Z,17.78
2023-04-15T06:35:04.584Z,17.76
2023-04-15T06:35:36.000Z,17.78
2023-04-15T06:36:07.407Z,17.77
2023-04-15T06:36:38.855Z,17.78
2023-04-15T06:37:10.249Z,17.78
2023-04-15T06:37:41.649Z,17.78
2023-04-15T06:38:13.053Z,17.78
2023-04-15T06:38:44.454Z,17.78
2023-04-15T06:39:15.851Z,17.77
2023-04-15T06:39:47.289Z,17.79
2023-04-15T06:40:18.728Z,17.79
2023-04-15T06:40:50.129Z,17.79
2023-04-15T06:41:21.527Z,17.80
2023-04-15T06:41:52.922Z,17.80
2023-04-15T06:42:24.334Z,17.80
2023-04-15T06:42:55.875Z,17.80
2023-04-15T06:43:27.311Z,17.80
2023-04-15T06:43:58.720Z,17.80
2023-04-15T06:44:31.210Z,17.80
2023-04-15T06:45:04.045Z,17.80